createdAt,value
2022-07-29T00:01:56.454Z,5.25
2022-07-29T00:04:29.382Z,4.13
2022-07-29T00:06:59.969Z,5.68
2022-07-29T00:09:29.946Z,6.55
2022-07-29T00:12:03.222Z,7.80
2022-07-29T00:14:33.672Z,7.03
2022-07-29T00:17:04.000Z,8.02
2022-07-29T00:19:36.884Z,6.45
2022-07-29T00:22:08.422Z,6.22
2022-07-29T00:24:38.644Z,5.93
2022-07-29T00:27:08.414Z,5.07
2022-07-29T00:29:38.618Z,5.50
2022-07-29T00:32:10.756Z,5.30
2022-07-29T00:34:55.663Z,7.47
2022-07-29T00:37:25.956Z,5.93
2022-07-29T00:39:56.220Z,7.93
2022-07-29T00:42:26.484Z,9.45
2022-07-29T00:44:56.705Z,5.65
2022-07-29T00:47:26.682Z,6.97
2022-07-29T00:49:59.527Z,8.52
2022-07-29T00:52:30.415Z,7.72
2022-07-29T00:55:04.957Z,7.55
2022-07-29T00:57:39.133Z,8.20
2022-07-29T01:00:12.634Z,5.22
2022-07-29T01:02:42.596Z,7.32
2022-07-29T01:05:19.140Z,5.63
2022-07-29T01:07:52.021Z,8.18
2022-07-29T01:10:24.754Z,6.50
2022-07-29T01:12:56.848Z,8.23
2022-07-29T01:15:29.708Z,6.07
2022-07-29T01:18:08.063Z,6.97
2022-07-29T01:21:09.461Z,6.20
2022-07-29T01:24:03.618Z,6.20
2022-07-29T01:29:23.941Z,6.57
2022-07-29T01:32:01.581Z,7.38
2022-07-29T01:34:44.351Z,6.50
2022-07-29T01:37:22.496Z,7.45
2022-07-29T01:39:56.757Z,6.15
2022-07-29T01:42:33.649Z,9.48
2022-07-29T01:45:14.418Z,6.43
2022-07-29T01:47:50.989Z,7.07
2022-07-29T01:50:27.710Z,8.43
2022-07-29T01:53:02.580Z,8.68
2022-07-29T01:55:40.508Z,7.97
2022-07-29T01:58:13.424Z,8.15
2022-07-29T02:00:49.741Z,6.65
2022-07-29T02:03:21.842Z,7.50
2022-07-29T02:05:54.631Z,8.93
2022-07-29T02:08:30.007Z,5.27
2022-07-29T02:11:00.979Z,8.73
2022-07-29T02:13:35.658Z,7.10
2022-07-29T02:16:11.018Z,7.65
2022-07-29T02:18:45.031Z,9.75
2022-07-29T02:21:24.039Z,5.70
2022-07-29T02:23:55.376Z,9.18
2022-07-29T02:26:28.252Z,8.43
2022-07-29T02:29:00.556Z,7.03
2022-07-29T02:31:38.779Z,6.93
2022-07-29T02:34:12.620Z,6.60
2022-07-29T02:36:44.484Z,7.40
2022-07-29T02:39:22.521Z,5.60
2022-07-29T02:41:56.915Z,9.00
2022-07-29T02:44:34.425Z,5.95
2022-07-29T02:47:15.174Z,6.38
2022-07-29T02:49:52.554Z,10.45
2022-07-29T02:52:29.882Z,9.13
2022-07-29T02:55:04.196Z,7.30
2022-07-29T02:57:54.311Z,6.30
2022-07-29T03:00:30.718Z,7.53
2022-07-29T03:03:07.698Z,9.15
2022-07-29T03:05:39.015Z,12.25
2022-07-29T03:08:13.160Z,7.15
2022-07-29T03:10:47.832Z,8.10
2022-07-29T03:13:19.995Z,9.52
2022-07-29T03:15:52.211Z,5.93
2022-07-29T03:18:26.109Z,8.13
2022-07-29T03:20:56.382Z,7.80
2022-07-29T03:23:35.173Z,8.60
2022-07-29T03:26:07.055Z,8.20
2022-07-29T03:28:37.117Z,8.15
2022-07-29T03:31:09.724Z,6.82
2022-07-29T03:33:42.229Z,8.55
2022-07-29T03:36:13.744Z,10.20
2022-07-29T03:38:46.604Z,11.50
2022-07-29T03:41:18.578Z,13.00
2022-07-29T03:43:55.924Z,8.38
2022-07-29T03:46:30.539Z,9.20
2022-07-29T03:49:09.474Z,9.43
2022-07-29T03:51:39.866Z,11.00
2022-07-29T03:54:12.570Z,9.43
2022-07-29T03:56:47.887Z,11.32
2022-07-29T03:59:24.329Z,13.02
2022-07-29T04:01:54.835Z,10.65
2022-07-29T04:04:27.634Z,15.00
2022-07-29T04:06:58.923Z,8.15
2022-07-29T04:09:29.282Z,9.65
2022-07-29T04:12:03.386Z,9.50
2022-07-29T04:14:35.924Z,8.02
2022-07-29T04:17:07.519Z,12.23
2022-07-29T04:19:39.952Z,9.48
2022-07-29T04:22:09.869Z,9.18
2022-07-29T04:24:43.986Z,11.07
2022-07-29T04:27:16.234Z,10.93
2022-07-29T04:29:56.916Z,11.30
2022-07-29T04:32:27.699Z,7.78
2022-07-29T04:35:03.567Z,9.65
2022-07-29T04:37:33.933Z,11.80
2022-07-29T04:40:07.187Z,8.02
2022-07-29T04:42:46.211Z,11.48
2022-07-29T04:45:16.894Z,10.73
2022-07-29T04:47:52.935Z,10.70
2022-07-29T04:50:26.300Z,11.27
2022-07-29T04:52:57.537Z,10.93
2022-07-29T04:55:28.024Z,13.70
2022-07-29T04:58:00.590Z,10.32
2022-07-29T05:00:34.792Z,9.05
2022-07-29T05:03:04.572Z,10.83
2022-07-29T05:05:37.327Z,9.40
2022-07-29T05:08:07.955Z,9.13
2022-07-29T05:10:39.208Z,12.77
2022-07-29T05:13:12.892Z,10.07
2022-07-29T05:18:12.618Z,8.85
2022-07-29T05:20:45.232Z,11.50
2022-07-29T05:23:16.989Z,10.13
2022-07-29T05:25:47.538Z,8.02
2022-07-29T05:28:18.212Z,9.40
2022-07-29T05:30:48.600Z,10.05
2022-07-29T05:33:35.124Z,8.02
2022-07-29T05:36:10.005Z,12.45
2022-07-29T05:38:40.471Z,8.48
2022-07-29T05:41:10.685Z,10.23
2022-07-29T05:43:40.546Z,7.75
2022-07-29T05:46:10.667Z,10.25
2022-07-29T05:48:41.082Z,7.78
2022-07-29T05:51:17.609Z,9.05
2022-07-29T05:53:47.567Z,10.18
2022-07-29T05:56:17.499Z,8.23
2022-07-29T05:58:48.013Z,8.48
2022-07-29T06:01:18.808Z,10.13
2022-07-29T06:03:50.615Z,7.63
2022-07-29T06:06:23.662Z,9.35
2022-07-29T06:08:54.153Z,8.25
2022-07-29T06:11:24.635Z,9.82
2022-07-29T06:13:55.276Z,7.60
2022-07-29T06:16:29.788Z,7.25
2022-07-29T06:19:01.687Z,7.95
2022-07-29T06:21:34.784Z,6.35
2022-07-29T06:24:09.896Z,6.18
2022-07-29T06:26:40.099Z,9.98
2022-07-29T06:29:11.816Z,10.07
2022-07-29T06:31:42.376Z,6.38
2022-07-29T06:34:12.450Z,8.48
2022-07-29T06:36:48.520Z,8.35
2022-07-29T06:39:19.565Z,10.55
2022-07-29T06:41:54.265Z,13.43
2022-07-29T06:44:25.140Z,7.25
2022-07-29T06:46:58.349Z,8.38
2022-07-29T06:49:31.888Z,7.13
2022-07-29T06:54:35.248Z,9.57
2022-07-29T06:57:05.522Z,9.88
2022-07-29T06:59:36.169Z,7.80
2022-07-29T07:02:06.471Z,9.07
2022-07-29T07:04:37.020Z,7.22
2022-07-29T07:07:12.001Z,7.63
2022-07-29T07:09:42.392Z,7.97
2022-07-29T07:12:16.336Z,8.50
2022-07-29T07:14:46.629Z,10.13
2022-07-29T07:17:16.784Z,10.40
2022-07-29T07:19:47.946Z,9.00
2022-07-29T07:22:21.301Z,9.02
2022-07-29T07:27:23.906Z,7.63
2022-07-29T07:29:56.993Z,9.13
2022-07-29T07:32:27.071Z,9.23
2022-07-29T07:34:57.433Z,8.65
2022-07-29T07:37:35.826Z,11.37
2022-07-29T07:40:06.910Z,8.80
2022-07-29T07:42:37.129Z,10.13
2022-07-29T07:47:45.737Z,9.98
2022-07-29T07:50:19.280Z,9.45
2022-07-29T07:53:00.136Z,7.93
2022-07-29T07:55:47.472Z,9.10
2022-07-29T07:58:25.122Z,7.30
2022-07-29T08:03:25.689Z,9.65
2022-07-29T08:06:01.013Z,8.55
2022-07-29T08:08:34.834Z,7.80
2022-07-29T08:11:09.395Z,8.98
2022-07-29T08:13:40.937Z,10.90
2022-07-29T08:16:17.986Z,12.93
2022-07-29T08:18:50.324Z,8.38
2022-07-29T08:21:21.824Z,7.82
2022-07-29T08:24:16.577Z,13.68
2022-07-29T08:26:48.919Z,11.07
2022-07-29T08:29:20.181Z,7.93
2022-07-29T08:31:50.984Z,13.35
2022-07-29T08:34:27.748Z,8.43
2022-07-29T08:37:01.050Z,11.57
2022-07-29T08:39:34.914Z,10.75
2022-07-29T08:42:05.382Z,10.35
2022-07-29T08:44:36.875Z,10.98
2022-07-29T08:47:07.360Z,7.60
2022-07-29T08:49:39.661Z,9.15
2022-07-29T08:52:12.766Z,7.00
2022-07-29T08:54:47.872Z,10.25
2022-07-29T08:57:18.454Z,11.15
2022-07-29T08:59:54.855Z,11.90
2022-07-29T09:02:26.504Z,8.77
2022-07-29T09:04:56.699Z,9.60
2022-07-29T09:07:26.879Z,8.68
2022-07-29T09:10:08.956Z,7.75
2022-07-29T09:12:39.105Z,7.72
2022-07-29T09:15:12.934Z,12.48
2022-07-29T09:17:48.167Z,10.98
2022-07-29T09:20:22.196Z,10.38
2022-07-29T09:22:54.447Z,10.15
2022-07-29T09:25:41.243Z,9.02
2022-07-29T09:28:11.987Z,10.80
2022-07-29T09:30:54.677Z,11.23
2022-07-29T09:33:26.640Z,11.53
2022-07-29T09:36:06.711Z,10.95
2022-07-29T09:38:37.761Z,11.25
2022-07-29T09:41:11.775Z,13.30
2022-07-29T09:43:43.524Z,11.82
2022-07-29T09:46:17.965Z,10.70
2022-07-29T09:48:48.216Z,10.45
2022-07-29T09:51:28.316Z,13.20
2022-07-29T09:54:26.996Z,12.95
2022-07-29T09:57:00.207Z,9.30
2022-07-29T09:59:31.105Z,10.73
2022-07-29T10:02:01.540Z,11.50
2022-07-29T10:04:46.623Z,9.60
2022-07-29T10:07:16.707Z,10.07
2022-07-29T10:09:56.396Z,10.40
2022-07-29T10:12:29.741Z,9.07
2022-07-29T10:15:01.065Z,11.32
2022-07-29T10:17:31.186Z,8.65
2022-07-29T10:20:01.657Z,7.75
2022-07-29T10:22:52.336Z,10.48
2022-07-29T10:25:24.263Z,8.38
2022-07-29T10:27:58.769Z,8.10
2022-07-29T10:30:30.360Z,11.65
2022-07-29T10:33:26.503Z,11.52
2022-07-29T10:36:06.614Z,8.85
2022-07-29T10:38:56.517Z,11.35
2022-07-29T10:41:51.418Z,9.63
2022-07-29T10:44:26.776Z,11.27
2022-07-29T10:46:57.450Z,13.40
2022-07-29T10:49:31.439Z,9.00
2022-07-29T10:52:06.019Z,9.35
2022-07-29T10:54:48.733Z,9.63
2022-07-29T10:57:57.728Z,10.88
2022-07-29T11:00:36.424Z,9.18
2022-07-29T11:03:10.618Z,11.13
2022-07-29T11:05:59.901Z,10.60
2022-07-29T11:08:32.826Z,8.70
2022-07-29T11:11:38.267Z,9.63
2022-07-29T11:14:10.399Z,8.98
2022-07-29T11:17:09.089Z,6.28
2022-07-29T11:19:45.720Z,9.50
2022-07-29T11:22:45.822Z,10.05
2022-07-29T11:25:18.343Z,11.20
2022-07-29T11:27:49.014Z,12.23
2022-07-29T11:30:21.835Z,8.75
2022-07-29T11:32:58.126Z,9.30
2022-07-29T11:35:38.336Z,7.40
2022-07-29T11:38:33.106Z,7.18
2022-07-29T11:41:28.265Z,7.60
2022-07-29T11:44:01.563Z,8.70
2022-07-29T11:46:54.546Z,8.30
2022-07-29T11:49:31.933Z,7.10
2022-07-29T11:52:11.002Z,6.28
2022-07-29T11:54:58.012Z,7.38
2022-07-29T11:57:37.149Z,9.77
2022-07-29T12:00:12.437Z,7.10
2022-07-29T12:02:48.046Z,7.18
2022-07-29T12:05:36.559Z,6.55
2022-07-29T12:08:15.997Z,5.78
2022-07-29T12:10:47.472Z,9.15
2022-07-29T12:13:19.465Z,10.27
2022-07-29T12:16:00.152Z,10.03
2022-07-29T12:18:31.233Z,10.25
2022-07-29T12:21:06.475Z,7.57
2022-07-29T12:23:37.141Z,7.90
2022-07-29T12:26:10.616Z,7.68
2022-07-29T12:28:41.984Z,7.38
2022-07-29T12:31:42.817Z,9.13
2022-07-29T12:34:08.391Z,11.27
2022-07-29T12:36:42.548Z,5.85
2022-07-29T12:39:13.527Z,9.48
2022-07-29T12:41:43.676Z,7.70
2022-07-29T12:44:13.916Z,8.95
2022-07-29T12:46:43.982Z,9.55
2022-07-29T12:49:14.279Z,10.50
2022-07-29T12:51:46.652Z,7.05
2022-07-29T12:54:18.259Z,13.85
2022-07-29T12:56:49.199Z,7.15
2022-07-29T12:59:22.945Z,7.40
2022-07-29T13:01:55.121Z,7.88
2022-07-29T13:04:31.592Z,9.02
2022-07-29T13:07:10.601Z,8.25
2022-07-29T13:09:42.930Z,8.80
2022-07-29T13:12:14.683Z,8.75
2022-07-29T13:14:46.564Z,7.57
2022-07-29T13:17:18.380Z,6.80
2022-07-29T13:19:50.841Z,8.38
2022-07-29T13:22:25.191Z,6.47
2022-07-29T13:24:57.900Z,5.95
2022-07-29T13:27:33.371Z,7.85
2022-07-29T13:30:05.701Z,7.57
2022-07-29T13:32:37.443Z,7.97
2022-07-29T13:35:10.712Z,7.47
2022-07-29T13:37:43.779Z,8.98
2022-07-29T13:42:45.483Z,9.50
2022-07-29T13:45:17.333Z,9.13
2022-07-29T13:47:47.927Z,10.10
2022-07-29T13:50:19.933Z,8.00
2022-07-29T13:52:52.656Z,6.60
2022-07-29T13:55:23.184Z,6.88
2022-07-29T13:57:53.512Z,7.47
2022-07-29T14:00:24.808Z,6.88
2022-07-29T14:02:54.942Z,7.43
2022-07-29T14:05:25.664Z,8.80
2022-07-29T14:08:01.391Z,5.40
2022-07-29T14:10:31.753Z,6.95
2022-07-29T14:13:01.679Z,7.45
2022-07-29T14:15:32.168Z,8.70
2022-07-29T14:18:02.842Z,6.35
2022-07-29T14:20:34.950Z,9.18
2022-07-29T14:23:07.373Z,7.25
2022-07-29T14:25:37.506Z,7.10
2022-07-29T14:28:11.986Z,6.68
2022-07-29T14:30:44.857Z,7.70
2022-07-29T14:33:17.882Z,7.88
2022-07-29T14:35:49.613Z,6.18
2022-07-29T14:38:22.234Z,7.60
2022-07-29T14:40:57.018Z,7.53
2022-07-29T14:43:27.463Z,7.10
2022-07-29T14:46:02.918Z,4.82
2022-07-29T14:48:35.406Z,7.30
2022-07-29T14:51:05.544Z,6.32
2022-07-29T14:53:39.048Z,7.47
2022-07-29T14:56:34.314Z,9.90
2022-07-29T14:58:59.092Z,9.00
2022-07-29T15:01:33.159Z,6.55
2022-07-29T15:04:04.293Z,5.95
2022-07-29T15:06:35.129Z,8.88
2022-07-29T15:09:07.870Z,5.22
2022-07-29T15:11:38.587Z,10.35
2022-07-29T15:14:08.897Z,7.65
2022-07-29T15:16:41.902Z,8.07
2022-07-29T15:19:17.090Z,5.90
2022-07-29T15:24:34.390Z,6.97
2022-07-29T15:27:04.566Z,8.25
2022-07-29T15:29:35.861Z,9.93
2022-07-29T15:32:06.197Z,7.93
2022-07-29T15:34:36.487Z,7.72
2022-07-29T15:37:07.134Z,5.88
2022-07-29T15:39:39.518Z,10.27
2022-07-29T15:42:09.960Z,6.90
2022-07-29T15:44:39.953Z,10.93
2022-07-29T15:47:10.605Z,9.02
2022-07-29T15:49:47.214Z,7.13
2022-07-29T15:52:25.959Z,5.75
2022-07-29T15:55:00.985Z,9.30
2022-07-29T15:57:31.059Z,7.90
2022-07-29T16:00:04.360Z,8.18
2022-07-29T16:02:34.656Z,8.57
2022-07-29T16:05:04.599Z,8.40
2022-07-29T16:07:39.713Z,9.07
2022-07-29T16:10:12.362Z,6.68
2022-07-29T16:12:42.210Z,4.85
2022-07-29T16:15:13.043Z,11.57
2022-07-29T16:17:42.967Z,7.20
2022-07-29T16:20:14.084Z,6.13
2022-07-29T16:22:43.990Z,13.18
2022-07-29T16:25:19.813Z,8.43
2022-07-29T16:27:49.933Z,8.20
2022-07-29T16:30:20.856Z,8.23
2022-07-29T16:32:50.947Z,9.32
2022-07-29T16:35:20.853Z,5.32
2022-07-29T16:37:50.821Z,7.18
2022-07-29T16:40:23.978Z,7.78
2022-07-29T16:45:24.142Z,7.65
2022-07-29T16:48:01.334Z,7.43
2022-07-29T16:50:34.002Z,8.82
2022-07-29T16:53:12.182Z,7.47
2022-07-29T16:55:49.141Z,7.53
2022-07-29T16:58:19.383Z,6.15
2022-07-29T17:00:52.608Z,8.70
2022-07-29T17:05:56.345Z,8.60
2022-07-29T17:08:26.625Z,8.68
2022-07-29T17:10:59.798Z,6.38
2022-07-29T17:13:29.821Z,10.23
2022-07-29T17:16:00.761Z,6.05
2022-07-29T17:18:31.181Z,6.25
2022-07-29T17:21:01.120Z,9.13
2022-07-29T17:23:31.567Z,8.23
2022-07-29T17:26:04.914Z,14.98
2022-07-29T17:31:07.640Z,6.30
2022-07-29T17:33:37.998Z,10.50
2022-07-29T17:36:21.084Z,9.13
2022-07-29T17:38:51.424Z,8.55
2022-07-29T17:41:26.791Z,7.07
2022-07-29T17:43:57.938Z,8.88
2022-07-29T17:46:30.121Z,8.30
2022-07-29T17:49:01.831Z,9.07
2022-07-29T17:51:32.478Z,10.63
2022-07-29T17:54:02.681Z,8.40
2022-07-29T17:56:35.391Z,9.55
2022-07-29T17:59:17.985Z,8.15
2022-07-29T18:01:48.314Z,9.38
2022-07-29T18:04:23.656Z,9.80
2022-07-29T18:06:54.555Z,11.25
2022-07-29T18:09:25.291Z,10.18
2022-07-29T18:11:58.535Z,11.38
2022-07-29T18:14:29.416Z,9.82
2022-07-29T18:17:00.367Z,9.98
2022-07-29T18:19:31.582Z,9.85
2022-07-29T18:22:05.298Z,9.30
2022-07-29T18:24:36.237Z,13.52
2022-07-29T18:27:09.059Z,9.88
2022-07-29T18:29:39.709Z,13.32
2022-07-29T18:32:10.783Z,14.50
2022-07-29T18:34:41.192Z,11.02
2022-07-29T18:37:13.577Z,13.05
2022-07-29T18:39:44.066Z,9.27
2022-07-29T18:42:18.232Z,15.63
2022-07-29T18:44:49.112Z,10.80
2022-07-29T18:47:22.533Z,8.95
2022-07-29T18:52:34.359Z,10.40
2022-07-29T18:55:05.712Z,12.43
2022-07-29T18:57:53.746Z,13.52
2022-07-29T19:00:25.742Z,11.63
2022-07-29T19:02:57.269Z,12.52
2022-07-29T19:05:27.544Z,14.23
2022-07-29T19:07:58.220Z,14.05
2022-07-29T19:10:28.332Z,11.65
2022-07-29T19:13:06.362Z,11.63
2022-07-29T19:15:38.321Z,9.88
2022-07-29T19:18:13.639Z,14.50
2022-07-29T19:20:44.091Z,12.60
2022-07-29T19:23:15.020Z,12.10
2022-07-29T19:25:53.737Z,13.82
2022-07-29T19:28:27.383Z,14.75
2022-07-29T19:33:29.330Z,12.05
2022-07-29T19:35:59.462Z,16.13
2022-07-29T19:38:32.374Z,12.77
2022-07-29T19:41:02.900Z,14.98
2022-07-29T19:43:50.721Z,10.98
2022-07-29T19:46:23.068Z,15.65
2022-07-29T19:48:54.042Z,15.68
2022-07-29T19:51:24.122Z,15.00
2022-07-29T19:53:55.197Z,15.02
2022-07-29T19:56:30.228Z,12.35
2022-07-29T19:59:03.801Z,18.77
2022-07-29T20:01:38.213Z,15.95
2022-07-29T20:04:08.448Z,17.05
2022-07-29T20:06:38.530Z,14.80
2022-07-29T20:09:08.602Z,26.77
2022-07-29T20:11:47.106Z,15.65
2022-07-29T20:14:20.606Z,14.98
2022-07-29T20:19:21.257Z,13.90
2022-07-29T20:21:51.756Z,15.90
2022-07-29T20:24:22.721Z,18.90
2022-07-29T20:26:52.539Z,12.23
2022-07-29T20:29:26.720Z,17.33
2022-07-29T20:31:56.979Z,11.40
2022-07-29T20:34:28.734Z,14.73
2022-07-29T20:37:00.421Z,9.65
2022-07-29T20:39:33.523Z,13.65
2022-07-29T20:42:04.029Z,17.08
2022-07-29T20:44:38.567Z,15.38
2022-07-29T20:47:08.969Z,12.85
2022-07-29T20:49:39.125Z,15.18
2022-07-29T20:52:11.107Z,11.93
2022-07-29T20:54:41.171Z,13.57
2022-07-29T20:57:11.639Z,13.25
2022-07-29T20:59:45.909Z,19.02
2022-07-29T21:02:16.209Z,11.40
2022-07-29T21:04:46.964Z,12.52
2022-07-29T21:07:17.508Z,19.90
2022-07-29T21:09:47.995Z,10.50
2022-07-29T21:12:17.782Z,14.35
2022-07-29T21:14:52.073Z,14.40
2022-07-29T21:17:25.090Z,13.30
2022-07-29T21:19:58.279Z,13.20
2022-07-29T21:22:31.268Z,14.10
2022-07-29T21:25:02.080Z,11.88
2022-07-29T21:27:46.726Z,18.52
2022-07-29T21:30:21.793Z,16.02
2022-07-29T21:32:52.137Z,13.32
2022-07-29T21:35:35.783Z,14.98
2022-07-29T21:38:12.214Z,13.63
2022-07-29T21:40:42.370Z,12.77
2022-07-29T21:43:12.474Z,12.98
2022-07-29T21:45:47.815Z,14.27
2022-07-29T21:48:18.598Z,13.98
2022-07-29T21:50:49.928Z,12.57
2022-07-29T21:53:22.138Z,14.77
2022-07-29T21:55:55.320Z,12.88
2022-07-29T21:58:25.790Z,14.57
2022-07-29T22:00:58.823Z,10.40
2022-07-29T22:03:31.301Z,15.20
2022-07-29T22:06:01.179Z,19.15
2022-07-29T22:08:31.016Z,14.80
2022-07-29T22:11:01.120Z,12.45
2022-07-29T22:13:31.609Z,13.88
2022-07-29T22:16:04.208Z,17.05
2022-07-29T22:18:34.117Z,12.57
2022-07-29T22:21:03.977Z,14.40
2022-07-29T22:23:34.587Z,10.88
2022-07-29T22:26:05.024Z,14.68
2022-07-29T22:28:35.113Z,12.52
2022-07-29T22:31:07.768Z,13.77
2022-07-29T22:33:38.024Z,13.93
2022-07-29T22:36:08.937Z,12.27
2022-07-29T22:38:38.897Z,15.88
2022-07-29T22:41:08.871Z,12.30
2022-07-29T22:43:41.379Z,12.45
2022-07-29T22:46:17.715Z,10.35
2022-07-29T22:48:48.110Z,12.98
2022-07-29T22:51:18.364Z,14.30
2022-07-29T22:53:48.025Z,17.35
2022-07-29T22:56:18.594Z,13.90
2022-07-29T22:58:49.503Z,15.00
2022-07-29T23:01:37.778Z,11.55
2022-07-29T23:04:08.567Z,11.88
2022-07-29T23:06:39.068Z,16.95
2022-07-29T23:09:09.207Z,15.68
2022-07-29T23:11:39.313Z,14.95
2022-07-29T23:14:09.540Z,14.68
2022-07-29T23:16:42.446Z,12.77
2022-07-29T23:19:12.394Z,17.23
2022-07-29T23:21:42.156Z,16.85
2022-07-29T23:24:12.316Z,15.02
2022-07-29T23:26:42.390Z,19.33
2022-07-29T23:29:12.783Z,17.00
2022-07-29T23:31:48.240Z,16.77
2022-07-29T23:34:19.475Z,18.30
2022-07-29T23:36:52.080Z,15.98
2022-07-29T23:39:22.551Z,14.93
2022-07-29T23:41:52.437Z,17.20
2022-07-29T23:44:22.906Z,13.80
2022-07-29T23:46:55.961Z,14.23
2022-07-29T23:49:26.207Z,13.45
2022-07-29T23:51:56.403Z,18.52
2022-07-29T23:54:26.326Z,17.63
2022-07-29T23:56:58.338Z,13.10
2022-07-29T23:59:28.777Z,13.55
